createdAt,value
2018-07-26T00:00:10.877Z,19.73
2018-07-26T00:02:39.162Z,19.77
2018-07-26T00:05:07.470Z,19.45
2018-07-26T00:07:36.132Z,19.59
2018-07-26T00:10:05.394Z,19.67
2018-07-26T00:12:33.711Z,19.72
2018-07-26T00:15:02.021Z,19.79
2018-07-26T00:17:30.338Z,19.54
2018-07-26T00:19:58.632Z,19.64
2018-07-26T00:22:26.911Z,19.64
2018-07-26T00:24:55.223Z,19.87
2018-07-26T00:27:23.491Z,19.77
2018-07-26T00:29:51.815Z,19.73
2018-07-26T00:32:20.162Z,19.34
2018-07-26T00:34:48.482Z,19.15
2018-07-26T00:37:16.809Z,19.06
2018-07-26T00:39:45.111Z,19.17
2018-07-26T00:42:13.422Z,18.99
2018-07-26T00:44:41.766Z,19.08
2018-07-26T00:47:10.392Z,19.38
2018-07-26T00:49:38.711Z,19.23
2018-07-26T00:52:07.180Z,19.01
2018-07-26T00:54:35.479Z,18.89
2018-07-26T00:57:03.837Z,18.74
2018-07-26T00:59:32.130Z,18.85
2018-07-26T01:02:00.382Z,19.06
2018-07-26T01:04:28.679Z,18.87
2018-07-26T01:06:56.956Z,18.82
2018-07-26T01:09:25.247Z,18.59
2018-07-26T01:11:53.580Z,18.36
2018-07-26T01:14:21.877Z,18.76
2018-07-26T01:16:50.328Z,19.13
2018-07-26T01:19:18.618Z,19.32
2018-07-26T01:21:46.907Z,19.37
2018-07-26T01:24:15.396Z,18.75
2018-07-26T01:26:43.690Z,18.30
2018-07-26T01:29:11.983Z,18.27
2018-07-26T01:31:40.261Z,18.26
2018-07-26T01:34:08.562Z,18.18
2018-07-26T01:36:36.850Z,18.21
2018-07-26T01:39:07.962Z,18.54
2018-07-26T01:41:36.316Z,18.74
2018-07-26T01:44:16.028Z,18.76
2018-07-26T01:46:44.337Z,18.77
2018-07-26T01:49:12.642Z,18.59
2018-07-26T01:51:40.993Z,18.44
2018-07-26T01:54:09.437Z,18.16
2018-07-26T01:56:37.723Z,18.09
2018-07-26T01:59:06.077Z,17.78
2018-07-26T02:01:34.487Z,17.93
2018-07-26T02:04:02.753Z,18.21
2018-07-26T02:06:31.081Z,18.46
2018-07-26T02:08:59.383Z,18.50
2018-07-26T02:11:27.721Z,18.47
2018-07-26T02:13:56.022Z,18.49
2018-07-26T02:16:24.338Z,18.55
2018-07-26T02:18:52.643Z,18.39
2018-07-26T02:21:20.969Z,17.87
2018-07-26T02:23:49.262Z,17.52
2018-07-26T02:26:17.597Z,17.70
2018-07-26T02:28:45.900Z,17.94
2018-07-26T02:31:14.251Z,18.26
2018-07-26T02:33:42.565Z,18.27
2018-07-26T02:36:10.893Z,18.16
2018-07-26T02:38:39.287Z,18.30
2018-07-26T02:41:07.615Z,17.91
2018-07-26T02:43:35.919Z,18.00
2018-07-26T02:46:04.236Z,17.97
2018-07-26T02:48:32.510Z,18.11
2018-07-26T02:51:00.807Z,18.22
2018-07-26T02:53:29.093Z,18.25
2018-07-26T02:55:57.406Z,18.34
2018-07-26T02:58:25.692Z,18.04
2018-07-26T03:00:53.991Z,17.91
2018-07-26T03:03:22.265Z,17.58
2018-07-26T03:05:50.539Z,17.43
2018-07-26T03:08:18.850Z,17.31
2018-07-26T03:10:47.212Z,17.40
2018-07-26T03:13:15.571Z,17.75
2018-07-26T03:15:43.887Z,17.76
2018-07-26T03:18:12.186Z,17.56
2018-07-26T03:20:40.710Z,17.10
2018-07-26T03:23:08.955Z,17.10
2018-07-26T03:25:37.231Z,17.12
2018-07-26T03:28:05.489Z,17.53
2018-07-26T03:30:33.781Z,17.39
2018-07-26T03:33:02.104Z,17.25
2018-07-26T03:35:30.393Z,17.70
2018-07-26T03:37:58.721Z,17.52
2018-07-26T03:40:26.983Z,17.72
2018-07-26T03:42:56.350Z,17.69
2018-07-26T03:45:24.576Z,17.49
2018-07-26T03:47:52.821Z,17.26
2018-07-26T03:50:21.199Z,17.28
2018-07-26T03:52:49.542Z,17.04
2018-07-26T03:55:17.890Z,17.28
2018-07-26T03:57:46.192Z,17.33
2018-07-26T04:00:14.403Z,17.87
2018-07-26T04:02:42.726Z,17.40
2018-07-26T04:05:10.989Z,16.99
2018-07-26T04:07:39.335Z,17.64
2018-07-26T04:10:07.717Z,17.68
2018-07-26T04:12:36.013Z,17.82
2018-07-26T04:15:04.955Z,17.70
2018-07-26T04:17:33.214Z,17.85
2018-07-26T04:20:01.538Z,18.15
2018-07-26T04:22:29.920Z,18.30
2018-07-26T04:24:58.182Z,18.22
2018-07-26T04:27:26.600Z,18.30
2018-07-26T04:29:54.840Z,18.15
2018-07-26T04:32:23.112Z,18.09
2018-07-26T04:34:51.364Z,17.93
2018-07-26T04:37:19.677Z,17.98
2018-07-26T04:39:47.899Z,18.04
2018-07-26T04:42:16.145Z,18.08
2018-07-26T04:44:44.633Z,18.29
2018-07-26T04:47:12.988Z,18.47
2018-07-26T04:49:41.313Z,18.57
2018-07-26T04:52:09.917Z,18.80
2018-07-26T04:54:38.296Z,18.83
2018-07-26T04:57:06.637Z,18.98
2018-07-26T04:59:35.057Z,19.10
2018-07-26T05:02:03.505Z,19.19
2018-07-26T05:04:31.922Z,19.27
2018-07-26T05:07:00.334Z,19.33
2018-07-26T05:09:28.601Z,19.48
2018-07-26T05:11:56.874Z,19.57
2018-07-26T05:14:25.078Z,19.71
2018-07-26T05:16:53.775Z,19.83
2018-07-26T05:19:22.035Z,19.90
2018-07-26T05:21:50.301Z,20.06
2018-07-26T05:24:18.537Z,20.21
2018-07-26T05:26:46.816Z,20.33
2018-07-26T05:29:15.065Z,20.45
2018-07-26T05:31:43.312Z,20.52
2018-07-26T05:34:11.600Z,20.66
2018-07-26T05:36:40.076Z,20.73
2018-07-26T05:39:10.212Z,20.83
2018-07-26T05:41:39.189Z,20.97
2018-07-26T05:44:07.450Z,21.06
2018-07-26T05:46:35.872Z,21.23
2018-07-26T05:49:04.330Z,21.36
2018-07-26T05:51:32.596Z,21.49
2018-07-26T05:54:00.870Z,21.58
2018-07-26T05:56:29.289Z,21.74
2018-07-26T05:58:57.580Z,21.89
2018-07-26T06:01:25.871Z,22.00
2018-07-26T06:03:54.429Z,22.15
2018-07-26T06:06:22.841Z,22.34
2018-07-26T06:08:51.233Z,22.33
2018-07-26T06:11:20.087Z,22.37
2018-07-26T06:13:48.436Z,22.49
2018-07-26T06:16:16.794Z,22.54
2018-07-26T06:18:45.112Z,22.70
2018-07-26T06:21:13.424Z,22.84
2018-07-26T06:23:41.685Z,22.92
2018-07-26T06:26:10.053Z,22.96
2018-07-26T06:28:38.419Z,23.07
2018-07-26T06:31:06.727Z,23.17
2018-07-26T06:33:35.092Z,23.22
2018-07-26T06:36:03.453Z,23.29
2018-07-26T06:38:31.760Z,23.46
2018-07-26T06:41:00.083Z,23.45
2018-07-26T06:43:28.430Z,23.39
2018-07-26T06:46:00.072Z,23.65
2018-07-26T06:48:30.836Z,23.47
2018-07-26T06:51:00.838Z,23.67
2018-07-26T06:53:30.646Z,23.73
2018-07-26T06:56:00.578Z,23.81
2018-07-26T06:58:29.888Z,23.73
2018-07-26T07:00:59.591Z,23.78
2018-07-26T07:03:29.376Z,23.89
2018-07-26T07:05:58.680Z,24.23
2018-07-26T07:08:28.341Z,24.15
2018-07-26T07:10:57.689Z,24.24
2018-07-26T07:13:26.018Z,24.25
2018-07-26T07:15:55.513Z,24.28
2018-07-26T07:18:25.512Z,24.40
2018-07-26T07:20:53.878Z,24.35
2018-07-26T07:23:22.218Z,24.43
2018-07-26T07:25:50.645Z,24.63
2018-07-26T07:28:18.933Z,24.53
2018-07-26T07:30:47.160Z,24.67
2018-07-26T07:33:15.423Z,24.69
2018-07-26T07:35:44.150Z,24.81
2018-07-26T07:38:12.421Z,24.78
2018-07-26T07:40:42.679Z,24.85
2018-07-26T07:43:26.469Z,24.94
2018-07-26T07:46:13.845Z,25.04
2018-07-26T07:51:54.578Z,25.31
2018-07-26T07:54:23.109Z,25.38
2018-07-26T07:59:53.166Z,25.47
2018-07-26T08:02:25.572Z,25.68
2018-07-26T08:04:56.450Z,25.80
2018-07-26T08:07:24.897Z,25.66
2018-07-26T08:09:54.746Z,25.74
2018-07-26T08:12:25.602Z,25.70
2018-07-26T08:14:55.574Z,25.85
2018-07-26T08:17:24.972Z,25.93
2018-07-26T08:19:53.465Z,26.04
2018-07-26T08:22:22.888Z,26.12
2018-07-26T08:24:53.982Z,26.22
2018-07-26T08:27:28.930Z,26.25
2018-07-26T08:29:57.366Z,26.23
2018-07-26T08:32:25.970Z,26.45
2018-07-26T08:34:54.311Z,26.61
2018-07-26T08:37:22.625Z,26.78
2018-07-26T08:39:50.962Z,26.69
2018-07-26T08:42:19.234Z,26.62
2018-07-26T08:44:47.540Z,26.76
2018-07-26T08:47:15.915Z,26.79
2018-07-26T08:49:44.251Z,26.78
2018-07-26T08:52:12.734Z,26.84
2018-07-26T08:54:41.039Z,26.94
2018-07-26T08:57:09.322Z,27.05
2018-07-26T08:59:37.614Z,27.13
2018-07-26T09:02:06.647Z,27.16
2018-07-26T09:04:34.987Z,27.26
2018-07-26T09:07:03.430Z,27.37
2018-07-26T09:09:31.774Z,27.41
2018-07-26T09:12:00.166Z,27.52
2018-07-26T09:14:28.487Z,27.68
2018-07-26T09:16:56.794Z,27.81
2018-07-26T09:19:25.091Z,27.53
2018-07-26T09:21:53.415Z,27.87
2018-07-26T09:24:21.846Z,28.01
2018-07-26T09:26:50.177Z,28.13
2018-07-26T09:29:20.958Z,28.14
2018-07-26T09:31:49.403Z,28.36
2018-07-26T09:34:17.752Z,28.49
2018-07-26T09:36:46.061Z,28.41
2018-07-26T09:39:17.539Z,28.05
2018-07-26T09:41:45.909Z,28.13
2018-07-26T09:44:18.157Z,28.36
2018-07-26T09:46:46.875Z,28.44
2018-07-26T09:49:15.276Z,28.59
2018-07-26T09:51:43.607Z,28.68
2018-07-26T09:54:12.071Z,28.79
2018-07-26T09:56:40.410Z,28.85
2018-07-26T09:59:08.753Z,28.67
2018-07-26T10:01:38.326Z,28.92
2018-07-26T10:04:06.940Z,29.12
2018-07-26T10:06:35.272Z,29.35
2018-07-26T10:09:06.013Z,29.22
2018-07-26T10:11:34.356Z,29.36
2018-07-26T10:14:02.755Z,29.31
2018-07-26T10:16:31.107Z,29.32
2018-07-26T10:18:59.457Z,29.15
2018-07-26T10:21:27.857Z,29.25
2018-07-26T10:23:56.193Z,29.25
2018-07-26T10:26:24.558Z,29.24
2018-07-26T10:28:52.935Z,29.41
2018-07-26T10:31:21.455Z,29.53
2018-07-26T10:33:49.781Z,29.68
2018-07-26T10:36:18.287Z,29.89
2018-07-26T10:38:46.605Z,30.15
2018-07-26T10:41:15.037Z,30.51
2018-07-26T10:43:43.413Z,30.51
2018-07-26T10:46:11.906Z,30.50
2018-07-26T10:48:40.289Z,30.63
2018-07-26T10:51:08.711Z,30.23
2018-07-26T10:53:37.086Z,30.59
2018-07-26T10:56:05.796Z,30.77
2018-07-26T10:58:34.291Z,30.71
2018-07-26T11:01:02.633Z,30.79
2018-07-26T11:03:31.060Z,30.77
2018-07-26T11:05:59.417Z,30.47
2018-07-26T11:08:27.745Z,30.61
2018-07-26T11:10:56.113Z,30.93
2018-07-26T11:13:24.467Z,31.06
2018-07-26T11:15:52.798Z,31.07
2018-07-26T11:18:21.116Z,30.87
2018-07-26T11:20:49.631Z,31.07
2018-07-26T11:23:18.127Z,31.27
2018-07-26T11:25:46.635Z,31.29
2018-07-26T11:28:15.067Z,31.37
2018-07-26T11:30:43.504Z,31.49
2018-07-26T11:33:11.833Z,31.48
2018-07-26T11:35:40.252Z,31.52
2018-07-26T11:38:08.636Z,31.31
2018-07-26T11:40:37.110Z,31.28
2018-07-26T11:43:05.695Z,31.39
2018-07-26T11:45:34.049Z,31.43
2018-07-26T11:48:02.384Z,31.29
2018-07-26T11:50:30.727Z,31.63
2018-07-26T11:52:59.111Z,31.71
2018-07-26T11:55:27.457Z,31.69
2018-07-26T11:57:55.783Z,31.67
2018-07-26T12:00:24.323Z,31.61
2018-07-26T12:02:52.667Z,31.79
2018-07-26T12:05:21.084Z,31.70
2018-07-26T12:07:49.487Z,31.90
2018-07-26T12:10:18.014Z,31.53
2018-07-26T12:12:46.395Z,31.76
2018-07-26T12:15:14.724Z,31.88
2018-07-26T12:17:43.137Z,31.86
2018-07-26T12:20:11.702Z,32.05
2018-07-26T12:22:40.061Z,31.85
2018-07-26T12:25:08.542Z,31.90
2018-07-26T12:27:37.089Z,32.06
2018-07-26T12:30:06.720Z,32.06
2018-07-26T12:32:35.088Z,32.09
2018-07-26T12:35:03.452Z,31.65
2018-07-26T12:37:31.903Z,31.93
2018-07-26T12:40:00.252Z,31.82
2018-07-26T12:42:34.880Z,31.81
2018-07-26T12:45:03.246Z,31.75
2018-07-26T12:47:31.646Z,31.89
2018-07-26T12:50:00.041Z,32.02
2018-07-26T12:52:28.424Z,32.13
2018-07-26T12:54:56.767Z,32.39
2018-07-26T12:57:25.128Z,32.26
2018-07-26T12:59:53.442Z,31.78
2018-07-26T13:02:21.815Z,31.67
2018-07-26T13:04:50.128Z,31.98
2018-07-26T13:07:18.462Z,31.95
2018-07-26T13:09:46.821Z,31.87
2018-07-26T13:12:15.270Z,32.04
2018-07-26T13:14:43.584Z,32.21
2018-07-26T13:17:12.088Z,32.12
2018-07-26T13:19:40.444Z,32.14
2018-07-26T13:22:08.868Z,32.20
2018-07-26T13:24:37.277Z,32.21
2018-07-26T13:27:05.956Z,32.30
2018-07-26T13:29:34.273Z,32.55
2018-07-26T13:32:02.636Z,32.30
2018-07-26T13:34:30.947Z,31.93
2018-07-26T13:36:59.289Z,31.74
2018-07-26T13:39:27.603Z,31.92
2018-07-26T13:41:56.032Z,32.13
2018-07-26T13:44:24.361Z,32.37
2018-07-26T13:46:52.993Z,32.32
2018-07-26T13:49:21.324Z,32.41
2018-07-26T13:51:49.704Z,32.38
2018-07-26T13:54:18.120Z,32.36
2018-07-26T13:56:46.485Z,31.90
2018-07-26T13:59:14.799Z,32.13
2018-07-26T14:01:43.130Z,32.32
2018-07-26T14:04:11.449Z,32.19
2018-07-26T14:06:39.818Z,32.42
2018-07-26T14:09:09.478Z,32.51
2018-07-26T14:11:37.939Z,32.51
2018-07-26T14:14:06.555Z,32.59
2018-07-26T14:16:35.013Z,32.40
2018-07-26T14:19:03.357Z,32.50
2018-07-26T14:21:31.701Z,32.56
2018-07-26T14:24:02.714Z,32.52
2018-07-26T14:26:32.418Z,32.40
2018-07-26T14:29:00.754Z,32.58
2018-07-26T14:31:29.109Z,32.20
2018-07-26T14:33:57.437Z,32.40
2018-07-26T14:36:25.758Z,32.59
2018-07-26T14:38:54.084Z,32.44
2018-07-26T14:41:22.474Z,32.60
2018-07-26T14:43:50.822Z,32.48
2018-07-26T14:46:19.106Z,32.24
2018-07-26T14:48:47.630Z,32.41
2018-07-26T14:51:15.946Z,32.66
2018-07-26T14:53:44.317Z,32.69
2018-07-26T14:56:12.646Z,32.95
2018-07-26T14:58:41.070Z,32.83
2018-07-26T15:01:09.513Z,32.78
2018-07-26T15:03:37.864Z,32.71
2018-07-26T15:06:06.272Z,32.51
2018-07-26T15:08:34.566Z,32.62
2018-07-26T15:11:03.040Z,32.20
2018-07-26T15:13:31.396Z,31.64
2018-07-26T15:15:59.767Z,31.49
2018-07-26T15:18:29.856Z,31.41
2018-07-26T15:20:58.534Z,31.62
2018-07-26T15:23:27.225Z,32.01
2018-07-26T15:25:55.982Z,32.12
2018-07-26T15:28:25.598Z,32.16
2018-07-26T15:30:59.479Z,32.16
2018-07-26T15:33:28.310Z,32.05
2018-07-26T15:36:05.588Z,32.16
2018-07-26T15:38:41.216Z,31.97
2018-07-26T18:13:25.451Z,29.71
2018-07-26T18:15:53.788Z,29.53
2018-07-26T18:18:22.196Z,29.43
2018-07-26T18:20:50.574Z,29.33
2018-07-26T18:23:18.948Z,29.22
2018-07-26T18:25:47.293Z,29.13
2018-07-26T18:28:15.750Z,28.94
2018-07-26T18:30:44.303Z,28.88
2018-07-26T18:33:12.733Z,28.83
2018-07-26T18:35:41.434Z,28.72
2018-07-26T18:38:09.871Z,28.75
2018-07-26T18:40:38.303Z,28.65
2018-07-26T18:43:06.651Z,28.61
2018-07-26T18:45:36.167Z,28.57
2018-07-26T18:48:05.036Z,28.47
2018-07-26T18:50:33.326Z,28.40
2018-07-26T18:53:01.740Z,28.36
2018-07-26T18:55:30.077Z,27.92
2018-07-26T18:57:58.327Z,27.65
2018-07-26T19:00:26.664Z,27.37
2018-07-26T19:02:55.064Z,27.27
2018-07-26T19:05:23.378Z,27.58
2018-07-26T19:07:51.633Z,27.53
2018-07-26T19:10:20.396Z,27.34
2018-07-26T19:12:49.766Z,27.15
2018-07-26T19:15:18.105Z,26.96
2018-07-26T19:17:46.405Z,26.76
2018-07-26T19:20:14.682Z,26.63
2018-07-26T19:22:42.942Z,26.52
2018-07-26T19:25:12.215Z,26.27
2018-07-26T19:27:40.616Z,26.10
2018-07-26T19:30:11.120Z,25.93
2018-07-26T19:32:39.482Z,25.81
2018-07-26T19:35:07.894Z,25.62
2018-07-26T19:37:36.396Z,25.54
2018-07-26T19:40:06.566Z,25.30
2018-07-26T19:42:34.821Z,25.01
2018-07-26T19:45:03.563Z,25.10
2018-07-26T19:47:32.176Z,24.93
2018-07-26T19:50:00.925Z,24.84
2018-07-26T19:52:29.279Z,24.90
2018-07-26T19:54:57.585Z,24.78
2018-07-26T19:57:25.876Z,24.72
2018-07-26T19:59:54.182Z,24.72
2018-07-26T20:02:22.887Z,24.52
2018-07-26T20:04:51.266Z,24.54
2018-07-26T20:07:19.803Z,24.53
2018-07-26T20:09:48.086Z,24.32
2018-07-26T20:12:18.847Z,24.36
2018-07-26T20:14:47.721Z,24.10
2018-07-26T20:17:15.966Z,24.12
2018-07-26T20:19:44.445Z,24.15
2018-07-26T20:22:13.002Z,23.98
2018-07-26T20:24:41.273Z,23.81
2018-07-26T20:27:15.258Z,23.81
2018-07-26T20:29:43.552Z,23.78
2018-07-26T20:32:11.861Z,23.66
2018-07-26T20:34:40.254Z,23.48
2018-07-26T20:37:13.494Z,23.26
2018-07-26T20:39:42.034Z,23.31
2018-07-26T20:42:11.482Z,23.17
2018-07-26T20:44:40.039Z,23.00
2018-07-26T20:47:08.774Z,22.98
2018-07-26T20:49:37.295Z,22.76
2018-07-26T20:52:05.962Z,22.81
2018-07-26T20:54:34.306Z,22.85
2018-07-26T20:57:02.986Z,22.90
2018-07-26T20:59:31.597Z,22.90
2018-07-26T21:01:59.882Z,22.79
2018-07-26T21:04:28.490Z,22.70
2018-07-26T21:06:56.765Z,22.67
2018-07-26T21:09:25.114Z,22.62
2018-07-26T21:11:53.405Z,22.54
2018-07-26T21:14:21.813Z,22.58
2018-07-26T21:16:50.421Z,22.57
2018-07-26T21:19:18.745Z,22.46
2018-07-26T21:21:47.037Z,22.53
2018-07-26T21:24:15.397Z,22.40
2018-07-26T21:26:43.704Z,22.30
2018-07-26T21:29:12.066Z,22.20
2018-07-26T21:31:40.472Z,22.16
2018-07-26T21:34:09.765Z,22.02
2018-07-26T21:36:38.022Z,22.11
2018-07-26T21:39:08.169Z,21.86
2018-07-26T21:41:37.204Z,21.68
2018-07-26T21:44:05.594Z,21.40
2018-07-26T21:46:34.581Z,21.19
2018-07-26T21:49:02.874Z,21.20
2018-07-26T21:51:33.151Z,21.31
2018-07-26T21:54:01.663Z,21.29
2018-07-26T21:56:29.933Z,21.07
2018-07-26T21:58:58.199Z,21.13
2018-07-26T22:01:26.558Z,21.13
2018-07-26T22:03:55.105Z,21.49
2018-07-26T22:06:23.369Z,21.37
2018-07-26T22:08:51.657Z,21.40
2018-07-26T22:11:20.052Z,21.35
2018-07-26T22:13:48.332Z,21.10
2018-07-26T22:16:16.690Z,20.86
2018-07-26T22:18:45.035Z,20.76
2018-07-26T22:21:14.360Z,20.78
2018-07-26T22:23:42.586Z,20.92
2018-07-26T22:26:11.075Z,20.86
2018-07-26T22:28:40.255Z,20.59
2018-07-26T22:31:09.160Z,20.48
2018-07-26T22:33:37.388Z,20.50
2018-07-26T22:36:06.414Z,20.46
2018-07-26T22:38:34.679Z,20.33
2018-07-26T22:41:02.957Z,20.18
2018-07-26T22:43:31.196Z,20.17
2018-07-26T22:45:59.491Z,20.19
2018-07-26T22:48:27.779Z,20.37
2018-07-26T22:50:57.189Z,20.22
2018-07-26T22:53:26.065Z,20.21
2018-07-26T22:55:54.530Z,20.45
2018-07-26T22:58:22.809Z,20.43
2018-07-26T23:00:51.095Z,20.45
2018-07-26T23:03:19.343Z,20.41
2018-07-26T23:05:47.630Z,20.49
2018-07-26T23:08:17.213Z,20.55
2018-07-26T23:10:45.514Z,20.66
2018-07-26T23:13:13.805Z,20.57
2018-07-26T23:15:42.018Z,20.36
2018-07-26T23:18:11.281Z,20.37
2018-07-26T23:20:39.553Z,20.33
2018-07-26T23:23:08.522Z,20.24
2018-07-26T23:25:36.727Z,20.34
2018-07-26T23:28:05.144Z,20.40
2018-07-26T23:30:33.461Z,20.25
2018-07-26T23:33:01.787Z,20.23
2018-07-26T23:35:30.797Z,20.32
2018-07-26T23:37:59.072Z,20.23
2018-07-26T23:40:27.312Z,19.90
2018-07-26T23:42:55.585Z,20.09
2018-07-26T23:46:53.061Z,20.14
2018-07-26T23:49:21.289Z,19.80
2018-07-26T23:51:49.575Z,19.75
2018-07-26T23:54:17.909Z,19.79
2018-07-26T23:56:46.780Z,19.68
2018-07-26T23:59:15.141Z,19.55
